Flight Track Log - Related Links

Times and Time Zones

All times are in EDT time to prevent confusion due to time zone crossing. See the CTL15 flight status page for this flight to view local times or setup timezone preferences in your user account.

Time Position Orientation Groundspeed Altitude Reporting Facility
EDT Latitude Longitude Course Direction KTS MPH feet Rate Location/Type
Wed 07:48:34 PM 39.6222 -84.1886 59° Northeast 129 148 2,100  Level Indianapolis Center
Wed 07:48:52 PM 39.6269 -84.1783 59° Northeast 139 160 2,200 456 Climbing Indianapolis Center
Wed 07:49:53 PM 39.6536 -84.1331 53° Northeast 159 183 2,700 385 Climbing Indianapolis Center
Wed 07:50:10 PM 39.6581 -84.1269 47° Northeast 151 174 2,700 300 Level Indianapolis Center
Wed 07:50:53 PM 39.6867 -84.0858 48° Northeast 174 200 3,000 290 Climbing Indianapolis Center
Wed 07:51:12 PM 39.6958 -84.0719 49° Northeast 164 189 3,000  Level Indianapolis Center
Wed 07:51:54 PM 39.7178 -84.0383 50° Northeast 179 206 3,000  Level Indianapolis Center
Wed 07:52:13 PM 39.7289 -84.0225 48° Northeast 172 198 3,000  Level Indianapolis Center
Wed 07:52:55 PM 39.7506 -83.9939 45° Northeast 176 203 3,000  Level Indianapolis Center
Wed 07:53:14 PM 39.7631 -83.9772 46° Northeast 175 201 3,000  Level Indianapolis Center
Wed 07:53:55 PM 39.7817 -83.9436 54° Northeast 175 201 3,000  Level Indianapolis Center
Wed 07:54:16 PM 39.7961 -83.9289 38° Northeast 175 201 3,000 -98 Level Indianapolis Center
Wed 07:54:56 PM 39.8208 -83.8969 45° Northeast 187 215 2,900  Descending Indianapolis Center
Wed 07:55:17 PM 39.8347 -83.8867 30° Northeast 177 204 3,000 98 Climbing Indianapolis Center
Wed 07:55:57 PM 39.8617 -83.8561 41° Northeast 180 207 3,000 -98 Level Indianapolis Center
Wed 07:56:18 PM 39.8742 -83.8442 36° Northeast 179 206 2,900  Descending Indianapolis Center
Wed 07:56:58 PM 39.9003 -83.8147 41° Northeast 181 208 3,000 194 Climbing Indianapolis Center
Wed 07:57:20 PM 39.9128 -83.8000 42° Northeast 182 209 3,100  Climbing Indianapolis Center
Wed 07:57:58 PM 39.9389 -83.7733 38° Northeast 182 209 3,000 -98 Descending Indianapolis Center
Wed 07:58:21 PM 39.9514 -83.7567 46° Northeast 181 208 3,000  Level Indianapolis Center
Wed 07:58:59 PM 39.9758 -83.7289 41° Northeast 183 211 3,000  Level Indianapolis Center
Wed 07:59:23 PM 39.9900 -83.7106 45° Northeast 183 211 3,000  Level Indianapolis Center
Wed 08:00:00 PM 40.0150 -83.6822 41° Northeast 189 217 3,000  Level Indianapolis Center
Wed 08:00:24 PM 40.0281 -83.6622 50° Northeast 186 214 3,000  Level Indianapolis Center
Wed 08:01:01 PM 40.0544 -83.6300 43° Northeast 186 214 3,000  Level Indianapolis Center
Wed 08:01:25 PM 40.0664 -83.6144 45° Northeast 187 215 3,000 -100 Level Indianapolis Center
Wed 08:02:01 PM 40.0894 -83.5797 49° Northeast 187 215 2,900  Descending Indianapolis Center
Wed 08:02:27 PM 40.1022 -83.5653 41° Northeast 187 215 3,000 98 Climbing Indianapolis Center
Wed 08:03:02 PM 40.1264 -83.5325 46° Northeast 184 212 3,000 98 Level Indianapolis Center
Wed 08:03:28 PM 40.1397 -83.5172 41° Northeast 186 214 3,100 -197 Climbing Indianapolis Center
Wed 08:04:03 PM 40.1633 -83.4853 46° Northeast 186 214 2,800 -98 Descending Indianapolis Center
Wed 08:04:29 PM 40.1789 -83.4694 38° Northeast 188 216 3,000 100 Climbing Indianapolis Center
Wed 08:05:03 PM 40.2003 -83.4378 49° Northeast 185 213 2,900  Descending Indianapolis Center
Wed 08:05:31 PM 40.2142 -83.4200 44° Northeast 186 214 3,000  Climbing Indianapolis Center
Wed 08:06:04 PM 40.2331 -83.3900 50° Northeast 182 209 2,900 -98 Descending Indianapolis Center
Wed 08:06:32 PM 40.2472 -83.3703 47° Northeast 182 209 2,900 -98 Level Indianapolis Center
Wed 08:07:05 PM 40.2700 -83.3397 46° Northeast 188 216 2,800 98 Descending Indianapolis Center
Wed 08:07:33 PM 40.2833 -83.3228 44° Northeast 182 209 3,000 100 Climbing Indianapolis Center
Wed 08:08:05 PM 40.3067 -83.2950 42° Northeast 176 203 2,900  Descending Indianapolis Center
Wed 08:08:35 PM 40.3206 -83.2775 44° Northeast 181 208 3,000 66 Climbing Indianapolis Center
Wed 08:09:36 PM 40.3581 -83.2311 43° Northeast 182 209 3,000  Level Indianapolis Center
Wed 08:10:38 PM 40.4028 -83.1781 42° Northeast 183 211 3,000 49 Level Indianapolis Center
Wed 08:11:39 PM 40.4400 -83.1372 40° Northeast 179 206 3,100  Climbing Indianapolis Center
Wed 08:12:40 PM 40.4769 -83.0936 42° Northeast 177 204 3,000 -49 Descending Indianapolis Center
Wed 08:13:42 PM 40.5128 -83.0467 45° Northeast 178 205 3,000  Level Indianapolis Center
Wed 08:14:43 PM 40.5475 -82.9978 47° Northeast 180 207 3,000  Level Indianapolis Center
Wed 08:15:45 PM 40.5858 -82.9478 45° Northeast 183 211 3,000  Level Indianapolis Center
Wed 08:16:46 PM 40.6206 -82.9003 46° Northeast 179 206 3,000 49 Level Indianapolis Center
Wed 08:17:47 PM 40.6564 -82.8500 47° Northeast 185 213 3,100  Climbing Indianapolis Center
Wed 08:18:49 PM 40.6881 -82.7986 51° Northeast 181 208 3,000  Descending Indianapolis Center
Wed 08:19:50 PM 40.7197 -82.7450 52° Northeast 183 211 3,100 49 Climbing Indianapolis Center
Wed 08:20:51 PM 40.7536 -82.6914 50° Northeast 188 216 3,100 -98 Level Indianapolis Center
Wed 08:21:53 PM 40.7856 -82.6347 53° Northeast 189 217 2,900 -194 Descending Indianapolis Center

Login

Don't have an account? Register now (free) for customized features, flight alerts, and more!